sensor_id;sensor_type;location;lat;lon;timestamp;P1;durP1;ratioP1;P2;durP2;ratioP2
13795;SDS011;40911;51.552;9.874;2022-09-29T00:01:29;10.65;;;8.25;;
13795;SDS011;40911;51.552;9.874;2022-09-29T00:03:51;13.25;;;8.93;;
13795;SDS011;40911;51.552;9.874;2022-09-29T00:08:35;13.60;;;9.00;;
13795;SDS011;40911;51.552;9.874;2022-09-29T00:10:57;12.82;;;8.77;;
13795;SDS011;40911;51.552;9.874;2022-09-29T00:15:41;13.95;;;9.07;;
13795;SDS011;40911;51.552;9.874;2022-09-29T00:18:04;13.07;;;9.05;;
13795;SDS011;40911;51.552;9.874;2022-09-29T00:20:27;12.82;;;9.65;;
13795;SDS011;40911;51.552;9.874;2022-09-29T00:22:49;15.13;;;9.77;;
13795;SDS011;40911;51.552;9.874;2022-09-29T00:25:11;13.80;;;9.38;;
13795;SDS011;40911;51.552;9.874;2022-09-29T00:29:54;15.43;;;10.00;;
13795;SDS011;40911;51.552;9.874;2022-09-29T00:32:16;13.40;;;9.93;;
13795;SDS011;40911;51.552;9.874;2022-09-29T00:37:01;16.55;;;9.18;;
13795;SDS011;40911;51.552;9.874;2022-09-29T00:41:44;14.68;;;9.43;;
13795;SDS011;40911;51.552;9.874;2022-09-29T00:44:48;14.82;;;10.38;;
13795;SDS011;40911;51.552;9.874;2022-09-29T00:47:08;13.57;;;9.73;;
13795;SDS011;40911;51.552;9.874;2022-09-29T00:49:35;15.05;;;10.70;;
13795;SDS011;40911;51.552;9.874;2022-09-29T00:52:03;17.27;;;10.27;;
13795;SDS011;40911;51.552;9.874;2022-09-29T00:54:31;15.15;;;10.43;;
13795;SDS011;40911;51.552;9.874;2022-09-29T00:56:56;14.40;;;10.05;;
13795;SDS011;40911;51.552;9.874;2022-09-29T00:59:22;13.98;;;10.27;;
13795;SDS011;40911;51.552;9.874;2022-09-29T01:01:51;13.50;;;9.77;;
13795;SDS011;40911;51.552;9.874;2022-09-29T01:04:14;16.63;;;10.52;;
13795;SDS011;40911;51.552;9.874;2022-09-29T01:06:38;13.60;;;10.25;;
13795;SDS011;40911;51.552;9.874;2022-09-29T01:09:06;16.10;;;11.18;;
13795;SDS011;40911;51.552;9.874;2022-09-29T01:11:34;14.70;;;10.20;;
13795;SDS011;40911;51.552;9.874;2022-09-29T01:16:22;13.43;;;9.63;;
13795;SDS011;40911;51.552;9.874;2022-09-29T01:21:10;13.95;;;10.13;;
13795;SDS011;40911;51.552;9.874;2022-09-29T01:29:27;14.45;;;9.88;;
13795;SDS011;40911;51.552;9.874;2022-09-29T01:32:13;16.63;;;10.20;;
13795;SDS011;40911;51.552;9.874;2022-09-29T01:34:42;15.10;;;11.10;;
13795;SDS011;40911;51.552;9.874;2022-09-29T01:37:09;15.25;;;10.10;;
13795;SDS011;40911;51.552;9.874;2022-09-29T01:39:37;16.50;;;10.55;;
13795;SDS011;40911;51.552;9.874;2022-09-29T01:42:04;16.65;;;10.43;;
13795;SDS011;40911;51.552;9.874;2022-09-29T01:44:33;15.90;;;10.88;;
13795;SDS011;40911;51.552;9.874;2022-09-29T01:47:00;15.57;;;10.98;;
13795;SDS011;40911;51.552;9.874;2022-09-29T01:49:28;15.70;;;10.70;;
13795;SDS011;40911;51.552;9.874;2022-09-29T01:51:54;14.98;;;10.77;;
13795;SDS011;40911;51.552;9.874;2022-09-29T01:54:21;14.43;;;10.05;;
13795;SDS011;40911;51.552;9.874;2022-09-29T01:56:49;15.13;;;10.50;;
13795;SDS011;40911;51.552;9.874;2022-09-29T01:59:16;15.60;;;10.27;;
13795;SDS011;40911;51.552;9.874;2022-09-29T02:01:42;15.95;;;10.45;;
13795;SDS011;40911;51.552;9.874;2022-09-29T02:04:06;14.73;;;10.13;;
13795;SDS011;40911;51.552;9.874;2022-09-29T02:06:35;15.90;;;10.73;;
13795;SDS011;40911;51.552;9.874;2022-09-29T02:09:03;15.65;;;11.07;;
13795;SDS011;40911;51.552;9.874;2022-09-29T02:11:29;19.25;;;11.13;;
13795;SDS011;40911;51.552;9.874;2022-09-29T02:13:54;17.17;;;10.95;;
13795;SDS011;40911;51.552;9.874;2022-09-29T02:16:25;16.20;;;10.77;;
13795;SDS011;40911;51.552;9.874;2022-09-29T02:18:52;19.48;;;11.35;;
13795;SDS011;40911;51.552;9.874;2022-09-29T02:21:15;20.65;;;11.88;;
13795;SDS011;40911;51.552;9.874;2022-09-29T02:25:59;17.50;;;10.63;;
13795;SDS011;40911;51.552;9.874;2022-09-29T02:28:23;16.65;;;10.93;;
13795;SDS011;40911;51.552;9.874;2022-09-29T02:30:45;16.35;;;10.55;;
13795;SDS011;40911;51.552;9.874;2022-09-29T02:33:17;17.38;;;10.75;;
13795;SDS011;40911;51.552;9.874;2022-09-29T02:35:43;15.38;;;10.88;;
13795;SDS011;40911;51.552;9.874;2022-09-29T02:38:11;16.67;;;11.65;;
13795;SDS011;40911;51.552;9.874;2022-09-29T02:40:46;18.15;;;11.38;;
13795;SDS011;40911;51.552;9.874;2022-09-29T02:43:25;15.60;;;11.00;;
13795;SDS011;40911;51.552;9.874;2022-09-29T02:46:01;16.70;;;11.10;;
13795;SDS011;40911;51.552;9.874;2022-09-29T02:51:25;17.20;;;11.85;;
13795;SDS011;40911;51.552;9.874;2022-09-29T02:53:51;18.35;;;12.15;;
13795;SDS011;40911;51.552;9.874;2022-09-29T02:58:50;19.33;;;11.18;;
13795;SDS011;40911;51.552;9.874;2022-09-29T03:01:16;17.33;;;10.63;;
13795;SDS011;40911;51.552;9.874;2022-09-29T03:06:00;16.10;;;11.20;;
13795;SDS011;40911;51.552;9.874;2022-09-29T03:08:21;19.35;;;12.25;;
13795;SDS011;40911;51.552;9.874;2022-09-29T03:13:06;18.25;;;11.27;;
13795;SDS011;40911;51.552;9.874;2022-09-29T03:15:28;17.83;;;11.38;;
13795;SDS011;40911;51.552;9.874;2022-09-29T03:20:15;17.27;;;10.65;;
13795;SDS011;40911;51.552;9.874;2022-09-29T03:22:37;16.23;;;10.88;;
13795;SDS011;40911;51.552;9.874;2022-09-29T03:27:20;16.92;;;10.82;;
13795;SDS011;40911;51.552;9.874;2022-09-29T03:32:05;15.45;;;10.27;;
13795;SDS011;40911;51.552;9.874;2022-09-29T03:36:49;16.52;;;11.10;;
13795;SDS011;40911;51.552;9.874;2022-09-29T03:41:32;17.60;;;10.48;;
13795;SDS011;40911;51.552;9.874;2022-09-29T03:46:17;17.45;;;10.00;;
13795;SDS011;40911;51.552;9.874;2022-09-29T03:48:38;16.88;;;11.40;;
13795;SDS011;40911;51.552;9.874;2022-09-29T03:51:02;14.35;;;10.32;;
13795;SDS011;40911;51.552;9.874;2022-09-29T03:53:25;15.68;;;10.40;;
13795;SDS011;40911;51.552;9.874;2022-09-29T03:55:47;15.40;;;10.38;;
13795;SDS011;40911;51.552;9.874;2022-09-29T03:58:10;17.83;;;11.23;;
13795;SDS011;40911;51.552;9.874;2022-09-29T04:02:54;14.40;;;10.73;;
13795;SDS011;40911;51.552;9.874;2022-09-29T04:05:17;16.65;;;11.32;;
13795;SDS011;40911;51.552;9.874;2022-09-29T04:10:00;17.00;;;10.93;;
13795;SDS011;40911;51.552;9.874;2022-09-29T04:12:21;17.17;;;10.27;;
13795;SDS011;40911;51.552;9.874;2022-09-29T04:14:43;14.18;;;10.30;;
13795;SDS011;40911;51.552;9.874;2022-09-29T04:19:28;17.13;;;10.48;;
13795;SDS011;40911;51.552;9.874;2022-09-29T04:21:50;14.68;;;10.50;;
13795;SDS011;40911;51.552;9.874;2022-09-29T04:24:11;18.27;;;10.80;;
13795;SDS011;40911;51.552;9.874;2022-09-29T04:28:55;13.50;;;9.77;;
13795;SDS011;40911;51.552;9.874;2022-09-29T04:33:38;14.40;;;10.38;;
13795;SDS011;40911;51.552;9.874;2022-09-29T04:36:02;17.95;;;10.35;;
13795;SDS011;40911;51.552;9.874;2022-09-29T04:38:24;14.63;;;10.10;;
13795;SDS011;40911;51.552;9.874;2022-09-29T04:43:07;16.08;;;9.88;;
13795;SDS011;40911;51.552;9.874;2022-09-29T04:45:29;13.93;;;10.10;;
13795;SDS011;40911;51.552;9.874;2022-09-29T04:47:51;26.35;;;12.15;;
13795;SDS011;40911;51.552;9.874;2022-09-29T04:52:36;15.82;;;9.63;;
13795;SDS011;40911;51.552;9.874;2022-09-29T04:54:58;15.63;;;9.38;;
13795;SDS011;40911;51.552;9.874;2022-09-29T04:59:44;16.05;;;9.63;;
13795;SDS011;40911;51.552;9.874;2022-09-29T05:02:06;16.20;;;10.50;;
13795;SDS011;40911;51.552;9.874;2022-09-29T05:06:49;18.42;;;10.07;;
13795;SDS011;40911;51.552;9.874;2022-09-29T05:11:34;23.58;;;10.82;;
13795;SDS011;40911;51.552;9.874;2022-09-29T05:13:56;20.52;;;11.43;;
13795;SDS011;40911;51.552;9.874;2022-09-29T05:16:19;46.67;;;14.63;;
13795;SDS011;40911;51.552;9.874;2022-09-29T05:21:06;40.25;;;14.48;;
13795;SDS011;40911;51.552;9.874;2022-09-29T05:23:29;46.65;;;14.38;;
13795;SDS011;40911;51.552;9.874;2022-09-29T05:28:13;38.38;;;13.07;;
13795;SDS011;40911;51.552;9.874;2022-09-29T05:30:35;58.70;;;14.05;;
13795;SDS011;40911;51.552;9.874;2022-09-29T05:32:57;20.77;;;11.52;;
13795;SDS011;40911;51.552;9.874;2022-09-29T05:37:40;44.15;;;10.80;;
13795;SDS011;40911;51.552;9.874;2022-09-29T05:40:02;35.70;;;10.27;;
13795;SDS011;40911;51.552;9.874;2022-09-29T05:42:26;36.35;;;10.90;;
13795;SDS011;40911;51.552;9.874;2022-09-29T05:44:48;24.27;;;10.68;;
13795;SDS011;40911;51.552;9.874;2022-09-29T05:49:31;59.13;;;11.93;;
13795;SDS011;40911;51.552;9.874;2022-09-29T05:51:55;29.27;;;11.32;;
13795;SDS011;40911;51.552;9.874;2022-09-29T05:56:38;16.77;;;10.10;;
13795;SDS011;40911;51.552;9.874;2022-09-29T05:59:01;38.20;;;11.43;;
13795;SDS011;40911;51.552;9.874;2022-09-29T06:01:24;28.40;;;11.82;;
13795;SDS011;40911;51.552;9.874;2022-09-29T06:03:46;21.17;;;11.02;;
13795;SDS011;40911;51.552;9.874;2022-09-29T06:06:10;26.90;;;12.50;;
13795;SDS011;40911;51.552;9.874;2022-09-29T06:08:33;28.33;;;11.90;;
13795;SDS011;40911;51.552;9.874;2022-09-29T06:11:00;25.70;;;11.52;;
13795;SDS011;40911;51.552;9.874;2022-09-29T06:13:23;26.17;;;11.30;;
13795;SDS011;40911;51.552;9.874;2022-09-29T06:15:46;65.22;;;11.80;;
13795;SDS011;40911;51.552;9.874;2022-09-29T06:18:08;72.05;;;12.40;;
13795;SDS011;40911;51.552;9.874;2022-09-29T06:20:29;24.55;;;11.70;;
13795;SDS011;40911;51.552;9.874;2022-09-29T06:22:57;48.55;;;12.68;;
13795;SDS011;40911;51.552;9.874;2022-09-29T06:27:40;67.25;;;12.82;;
13795;SDS011;40911;51.552;9.874;2022-09-29T06:32:25;23.98;;;11.50;;
13795;SDS011;40911;51.552;9.874;2022-09-29T06:34:47;74.07;;;12.55;;
13795;SDS011;40911;51.552;9.874;2022-09-29T06:37:26;48.65;;;10.52;;
13795;SDS011;40911;51.552;9.874;2022-09-29T06:39:58;42.35;;;11.02;;
13795;SDS011;40911;51.552;9.874;2022-09-29T06:42:20;33.17;;;10.55;;
13795;SDS011;40911;51.552;9.874;2022-09-29T06:44:43;38.28;;;12.20;;
13795;SDS011;40911;51.552;9.874;2022-09-29T06:49:27;37.85;;;10.38;;
13795;SDS011;40911;51.552;9.874;2022-09-29T06:51:49;52.20;;;11.27;;
13795;SDS011;40911;51.552;9.874;2022-09-29T06:54:12;50.53;;;11.80;;
13795;SDS011;40911;51.552;9.874;2022-09-29T06:56:34;117.22;;;14.27;;
13795;SDS011;40911;51.552;9.874;2022-09-29T07:01:18;101.70;;;12.60;;
13795;SDS011;40911;51.552;9.874;2022-09-29T07:06:03;39.58;;;11.02;;
13795;SDS011;40911;51.552;9.874;2022-09-29T07:08:25;69.07;;;12.80;;
13795;SDS011;40911;51.552;9.874;2022-09-29T07:10:47;57.42;;;12.85;;
13795;SDS011;40911;51.552;9.874;2022-09-29T07:13:09;58.17;;;12.90;;
13795;SDS011;40911;51.552;9.874;2022-09-29T07:17:53;37.70;;;10.75;;
13795;SDS011;40911;51.552;9.874;2022-09-29T07:22:37;18.75;;;10.27;;
13795;SDS011;40911;51.552;9.874;2022-09-29T07:24:59;31.85;;;11.20;;
13795;SDS011;40911;51.552;9.874;2022-09-29T07:27:21;57.40;;;12.07;;
13795;SDS011;40911;51.552;9.874;2022-09-29T07:32:04;27.38;;;10.73;;
13795;SDS011;40911;51.552;9.874;2022-09-29T07:36:48;24.38;;;10.55;;
13795;SDS011;40911;51.552;9.874;2022-09-29T07:39:11;30.35;;;10.90;;
13795;SDS011;40911;51.552;9.874;2022-09-29T07:41:33;30.15;;;10.57;;
13795;SDS011;40911;51.552;9.874;2022-09-29T07:43:55;21.27;;;11.10;;
13795;SDS011;40911;51.552;9.874;2022-09-29T07:48:38;17.08;;;10.88;;
13795;SDS011;40911;51.552;9.874;2022-09-29T07:51:00;27.48;;;11.10;;
13795;SDS011;40911;51.552;9.874;2022-09-29T07:53:23;33.47;;;10.27;;
13795;SDS011;40911;51.552;9.874;2022-09-29T07:58:08;17.80;;;10.15;;
13795;SDS011;40911;51.552;9.874;2022-09-29T08:02:51;23.77;;;10.15;;
13795;SDS011;40911;51.552;9.874;2022-09-29T08:07:35;17.98;;;10.63;;
13795;SDS011;40911;51.552;9.874;2022-09-29T08:09:56;17.90;;;11.55;;
13795;SDS011;40911;51.552;9.874;2022-09-29T08:12:20;17.80;;;10.45;;
13795;SDS011;40911;51.552;9.874;2022-09-29T08:14:42;14.75;;;9.95;;
13795;SDS011;40911;51.552;9.874;2022-09-29T08:17:03;17.60;;;10.65;;
13795;SDS011;40911;51.552;9.874;2022-09-29T08:21:47;18.65;;;9.93;;
13795;SDS011;40911;51.552;9.874;2022-09-29T08:26:35;14.20;;;9.52;;
13795;SDS011;40911;51.552;9.874;2022-09-29T08:28:59;16.95;;;10.65;;
13795;SDS011;40911;51.552;9.874;2022-09-29T08:31:21;15.82;;;9.90;;
13795;SDS011;40911;51.552;9.874;2022-09-29T08:36:04;15.77;;;9.68;;
13795;SDS011;40911;51.552;9.874;2022-09-29T08:38:33;16.20;;;10.02;;
13795;SDS011;40911;51.552;9.874;2022-09-29T08:41:03;13.50;;;10.10;;
13795;SDS011;40911;51.552;9.874;2022-09-29T08:43:26;16.75;;;11.15;;
13795;SDS011;40911;51.552;9.874;2022-09-29T08:45:54;14.68;;;10.18;;
13795;SDS011;40911;51.552;9.874;2022-09-29T08:48:20;16.10;;;10.90;;
13795;SDS011;40911;51.552;9.874;2022-09-29T08:50:45;15.07;;;10.60;;
13795;SDS011;40911;51.552;9.874;2022-09-29T08:53:11;16.60;;;10.73;;
13795;SDS011;40911;51.552;9.874;2022-09-29T08:55:39;15.75;;;10.23;;
13795;SDS011;40911;51.552;9.874;2022-09-29T08:58:06;16.80;;;11.38;;
13795;SDS011;40911;51.552;9.874;2022-09-29T09:00:33;15.50;;;10.85;;
13795;SDS011;40911;51.552;9.874;2022-09-29T09:03:04;16.75;;;10.65;;
13795;SDS011;40911;51.552;9.874;2022-09-29T09:05:50;15.40;;;10.98;;
13795;SDS011;40911;51.552;9.874;2022-09-29T09:08:35;14.23;;;10.50;;
13795;SDS011;40911;51.552;9.874;2022-09-29T09:11:04;13.15;;;10.25;;
13795;SDS011;40911;51.552;9.874;2022-09-29T09:13:45;15.02;;;10.90;;
13795;SDS011;40911;51.552;9.874;2022-09-29T09:16:19;15.50;;;11.75;;
13795;SDS011;40911;51.552;9.874;2022-09-29T09:18:53;14.88;;;11.07;;
13795;SDS011;40911;51.552;9.874;2022-09-29T09:21:25;16.15;;;11.32;;
13795;SDS011;40911;51.552;9.874;2022-09-29T09:23:53;15.80;;;11.50;;
13795;SDS011;40911;51.552;9.874;2022-09-29T09:26:16;15.45;;;11.13;;
13795;SDS011;40911;51.552;9.874;2022-09-29T09:28:40;15.57;;;10.85;;
13795;SDS011;40911;51.552;9.874;2022-09-29T09:31:07;14.85;;;10.95;;
13795;SDS011;40911;51.552;9.874;2022-09-29T09:33:32;16.30;;;11.70;;
13795;SDS011;40911;51.552;9.874;2022-09-29T09:36:01;17.50;;;12.20;;
13795;SDS011;40911;51.552;9.874;2022-09-29T09:38:27;17.17;;;11.05;;
13795;SDS011;40911;51.552;9.874;2022-09-29T09:41:00;15.45;;;11.25;;
13795;SDS011;40911;51.552;9.874;2022-09-29T09:43:23;14.18;;;11.55;;
13795;SDS011;40911;51.552;9.874;2022-09-29T09:45:50;19.25;;;12.63;;
13795;SDS011;40911;51.552;9.874;2022-09-29T09:48:18;15.90;;;11.70;;
13795;SDS011;40911;51.552;9.874;2022-09-29T09:50:43;17.25;;;12.63;;
13795;SDS011;40911;51.552;9.874;2022-09-29T09:53:11;15.00;;;11.55;;
13795;SDS011;40911;51.552;9.874;2022-09-29T09:55:35;14.98;;;11.77;;
13795;SDS011;40911;51.552;9.874;2022-09-29T09:58:00;15.20;;;11.90;;
13795;SDS011;40911;51.552;9.874;2022-09-29T10:00:33;14.48;;;11.38;;
13795;SDS011;40911;51.552;9.874;2022-09-29T10:03:00;13.10;;;11.18;;
13795;SDS011;40911;51.552;9.874;2022-09-29T10:05:25;12.90;;;10.65;;
13795;SDS011;40911;51.552;9.874;2022-09-29T10:07:53;14.32;;;11.35;;
13795;SDS011;40911;51.552;9.874;2022-09-29T10:10:18;12.52;;;10.82;;
13795;SDS011;40911;51.552;9.874;2022-09-29T10:12:41;15.45;;;11.23;;
13795;SDS011;40911;51.552;9.874;2022-09-29T10:15:04;12.68;;;10.82;;
13795;SDS011;40911;51.552;9.874;2022-09-29T10:17:44;13.73;;;10.63;;
13795;SDS011;40911;51.552;9.874;2022-09-29T10:20:08;13.85;;;10.98;;
13795;SDS011;40911;51.552;9.874;2022-09-29T10:22:31;11.00;;;9.82;;
13795;SDS011;40911;51.552;9.874;2022-09-29T10:24:58;12.57;;;10.27;;
13795;SDS011;40911;51.552;9.874;2022-09-29T10:27:29;12.52;;;10.27;;
13795;SDS011;40911;51.552;9.874;2022-09-29T10:29:51;14.00;;;10.82;;
13795;SDS011;40911;51.552;9.874;2022-09-29T10:32:15;13.68;;;10.13;;
13795;SDS011;40911;51.552;9.874;2022-09-29T10:34:44;11.38;;;10.18;;
13795;SDS011;40911;51.552;9.874;2022-09-29T10:37:17;11.02;;;9.60;;
13795;SDS011;40911;51.552;9.874;2022-09-29T10:39:43;11.60;;;9.98;;
13795;SDS011;40911;51.552;9.874;2022-09-29T10:42:19;12.40;;;10.60;;
13795;SDS011;40911;51.552;9.874;2022-09-29T10:44:44;10.93;;;9.60;;
13795;SDS011;40911;51.552;9.874;2022-09-29T10:47:12;14.10;;;10.02;;
13795;SDS011;40911;51.552;9.874;2022-09-29T10:49:35;10.45;;;9.35;;
13795;SDS011;40911;51.552;9.874;2022-09-29T10:54:20;16.40;;;9.90;;
13795;SDS011;40911;51.552;9.874;2022-09-29T10:56:46;11.70;;;8.82;;
13795;SDS011;40911;51.552;9.874;2022-09-29T10:59:09;12.95;;;9.40;;
13795;SDS011;40911;51.552;9.874;2022-09-29T11:01:34;12.02;;;8.65;;
13795;SDS011;40911;51.552;9.874;2022-09-29T11:04:13;13.00;;;9.48;;
13795;SDS011;40911;51.552;9.874;2022-09-29T11:06:38;8.93;;;8.02;;
13795;SDS011;40911;51.552;9.874;2022-09-29T11:09:02;11.48;;;7.90;;
13795;SDS011;40911;51.552;9.874;2022-09-29T11:11:26;8.20;;;7.40;;
13795;SDS011;40911;51.552;9.874;2022-09-29T11:13:49;8.98;;;6.65;;
13795;SDS011;40911;51.552;9.874;2022-09-29T11:16:13;7.88;;;6.60;;
13795;SDS011;40911;51.552;9.874;2022-09-29T11:18:38;6.68;;;6.05;;
13795;SDS011;40911;51.552;9.874;2022-09-29T11:21:03;6.65;;;6.05;;
13795;SDS011;40911;51.552;9.874;2022-09-29T11:23:42;6.70;;;6.03;;
13795;SDS011;40911;51.552;9.874;2022-09-29T11:26:18;6.85;;;5.55;;
13795;SDS011;40911;51.552;9.874;2022-09-29T11:28:52;7.15;;;5.50;;
13795;SDS011;40911;51.552;9.874;2022-09-29T11:31:42;6.13;;;5.13;;
13795;SDS011;40911;51.552;9.874;2022-09-29T11:34:17;6.15;;;5.65;;
13795;SDS011;40911;51.552;9.874;2022-09-29T11:36:57;6.65;;;6.05;;
13795;SDS011;40911;51.552;9.874;2022-09-29T11:39:28;6.30;;;5.70;;
13795;SDS011;40911;51.552;9.874;2022-09-29T11:42:00;5.07;;;4.57;;
13795;SDS011;40911;51.552;9.874;2022-09-29T11:44:40;5.40;;;4.95;;
13795;SDS011;40911;51.552;9.874;2022-09-29T11:47:17;5.25;;;4.82;;
13795;SDS011;40911;51.552;9.874;2022-09-29T11:49:52;5.45;;;4.95;;
13795;SDS011;40911;51.552;9.874;2022-09-29T11:52:32;5.18;;;4.68;;
13795;SDS011;40911;51.552;9.874;2022-09-29T11:55:06;6.07;;;4.72;;
13795;SDS011;40911;51.552;9.874;2022-09-29T11:57:42;5.10;;;4.45;;
13795;SDS011;40911;51.552;9.874;2022-09-29T12:00:14;5.47;;;4.90;;
13795;SDS011;40911;51.552;9.874;2022-09-29T12:03:01;5.32;;;4.82;;
13795;SDS011;40911;51.552;9.874;2022-09-29T12:05:51;4.68;;;4.18;;
13795;SDS011;40911;51.552;9.874;2022-09-29T12:08:30;7.07;;;4.45;;
13795;SDS011;40911;51.552;9.874;2022-09-29T12:11:02;5.20;;;4.70;;
13795;SDS011;40911;51.552;9.874;2022-09-29T12:13:29;4.40;;;4.00;;
13795;SDS011;40911;51.552;9.874;2022-09-29T12:16:03;4.78;;;4.00;;
13795;SDS011;40911;51.552;9.874;2022-09-29T12:18:37;5.00;;;3.78;;
13795;SDS011;40911;51.552;9.874;2022-09-29T12:21:08;3.90;;;3.50;;
13795;SDS011;40911;51.552;9.874;2022-09-29T12:23:33;3.88;;;3.20;;
13795;SDS011;40911;51.552;9.874;2022-09-29T12:25:59;3.40;;;3.10;;
13795;SDS011;40911;51.552;9.874;2022-09-29T12:28:27;3.00;;;2.80;;
13795;SDS011;40911;51.552;9.874;2022-09-29T12:30:56;3.15;;;2.83;;
13795;SDS011;40911;51.552;9.874;2022-09-29T12:33:22;3.22;;;2.92;;
13795;SDS011;40911;51.552;9.874;2022-09-29T12:35:47;3.53;;;3.00;;
13795;SDS011;40911;51.552;9.874;2022-09-29T12:38:18;4.78;;;3.10;;
13795;SDS011;40911;51.552;9.874;2022-09-29T12:40:46;3.58;;;3.03;;
13795;SDS011;40911;51.552;9.874;2022-09-29T12:43:14;3.13;;;2.90;;
13795;SDS011;40911;51.552;9.874;2022-09-29T12:45:43;3.47;;;2.50;;
13795;SDS011;40911;51.552;9.874;2022-09-29T12:48:15;2.90;;;1.92;;
13795;SDS011;40911;51.552;9.874;2022-09-29T12:50:43;2.17;;;2.00;;
13795;SDS011;40911;51.552;9.874;2022-09-29T12:53:11;2.65;;;2.35;;
13795;SDS011;40911;51.552;9.874;2022-09-29T12:55:42;2.35;;;2.15;;
13795;SDS011;40911;51.552;9.874;2022-09-29T12:58:11;2.67;;;2.40;;
13795;SDS011;40911;51.552;9.874;2022-09-29T13:00:39;3.05;;;2.47;;
13795;SDS011;40911;51.552;9.874;2022-09-29T13:06:03;2.03;;;1.90;;
13795;SDS011;40911;51.552;9.874;2022-09-29T13:08:48;3.05;;;2.00;;
13795;SDS011;40911;51.552;9.874;2022-09-29T13:11:46;2.30;;;2.10;;
13795;SDS011;40911;51.552;9.874;2022-09-29T13:14:23;3.95;;;2.50;;
13795;SDS011;40911;51.552;9.874;2022-09-29T13:17:27;2.92;;;2.70;;
13795;SDS011;40911;51.552;9.874;2022-09-29T13:23:09;3.45;;;3.15;;
13795;SDS011;40911;51.552;9.874;2022-09-29T13:25:47;3.63;;;3.33;;
13795;SDS011;40911;51.552;9.874;2022-09-29T13:28:23;2.35;;;2.15;;
13795;SDS011;40911;51.552;9.874;2022-09-29T13:30:49;2.85;;;2.15;;
13795;SDS011;40911;51.552;9.874;2022-09-29T13:33:14;2.20;;;2.00;;
13795;SDS011;40911;51.552;9.874;2022-09-29T13:35:41;1.73;;;1.63;;
13795;SDS011;40911;51.552;9.874;2022-09-29T13:38:06;2.50;;;1.50;;
13795;SDS011;40911;51.552;9.874;2022-09-29T13:40:35;1.65;;;1.55;;
13795;SDS011;40911;51.552;9.874;2022-09-29T13:42:57;3.50;;;1.98;;
13795;SDS011;40911;51.552;9.874;2022-09-29T13:50:56;2.95;;;1.73;;
13795;SDS011;40911;51.552;9.874;2022-09-29T13:53:31;1.80;;;1.65;;
13795;SDS011;40911;51.552;9.874;2022-09-29T13:55:56;2.78;;;1.70;;
13795;SDS011;40911;51.552;9.874;2022-09-29T13:58:31;1.67;;;1.58;;
13795;SDS011;40911;51.552;9.874;2022-09-29T14:00:57;2.78;;;1.60;;
13795;SDS011;40911;51.552;9.874;2022-09-29T14:03:24;1.77;;;1.58;;
13795;SDS011;40911;51.552;9.874;2022-09-29T14:05:53;2.28;;;1.40;;
13795;SDS011;40911;51.552;9.874;2022-09-29T14:08:18;1.80;;;1.67;;
13795;SDS011;40911;51.552;9.874;2022-09-29T14:10:45;2.05;;;1.60;;
13795;SDS011;40911;51.552;9.874;2022-09-29T14:13:10;2.92;;;2.30;;
13795;SDS011;40911;51.552;9.874;2022-09-29T14:15:36;2.08;;;1.50;;
13795;SDS011;40911;51.552;9.874;2022-09-29T14:18:02;2.60;;;2.10;;
13795;SDS011;40911;51.552;9.874;2022-09-29T14:20:33;54.47;;;24.13;;
13795;SDS011;40911;51.552;9.874;2022-09-29T14:22:57;13.95;;;6.32;;
13795;SDS011;40911;51.552;9.874;2022-09-29T14:25:32;2.53;;;2.10;;
13795;SDS011;40911;51.552;9.874;2022-09-29T14:28:14;4.35;;;3.13;;
13795;SDS011;40911;51.552;9.874;2022-09-29T14:30:41;4.47;;;3.60;;
13795;SDS011;40911;51.552;9.874;2022-09-29T14:33:07;2.40;;;2.20;;
13795;SDS011;40911;51.552;9.874;2022-09-29T14:35:34;4.00;;;2.20;;
13795;SDS011;40911;51.552;9.874;2022-09-29T14:37:59;3.72;;;2.70;;
13795;SDS011;40911;51.552;9.874;2022-09-29T14:40:23;3.45;;;3.15;;
13795;SDS011;40911;51.552;9.874;2022-09-29T14:43:00;6.10;;;3.70;;
13795;SDS011;40911;51.552;9.874;2022-09-29T14:45:50;6.40;;;3.60;;
13795;SDS011;40911;51.552;9.874;2022-09-29T14:48:42;3.33;;;3.03;;
13795;SDS011;40911;51.552;9.874;2022-09-29T14:51:34;5.32;;;4.03;;
13795;SDS011;40911;51.552;9.874;2022-09-29T14:54:38;3.92;;;3.55;;
13795;SDS011;40911;51.552;9.874;2022-09-29T15:00:00;2.70;;;2.50;;
13795;SDS011;40911;51.552;9.874;2022-09-29T15:02:26;3.25;;;2.60;;
13795;SDS011;40911;51.552;9.874;2022-09-29T15:04:51;3.35;;;2.90;;
13795;SDS011;40911;51.552;9.874;2022-09-29T15:25:24;2.80;;;2.53;;
13795;SDS011;40911;51.552;9.874;2022-09-29T15:27:49;4.60;;;2.80;;
13795;SDS011;40911;51.552;9.874;2022-09-29T15:30:14;3.47;;;2.63;;
13795;SDS011;40911;51.552;9.874;2022-09-29T15:32:38;2.63;;;2.40;;
13795;SDS011;40911;51.552;9.874;2022-09-29T15:35:00;2.70;;;2.15;;
13795;SDS011;40911;51.552;9.874;2022-09-29T15:37:25;2.95;;;2.60;;
13795;SDS011;40911;51.552;9.874;2022-09-29T15:39:48;20.50;;;3.13;;
13795;SDS011;40911;51.552;9.874;2022-09-29T15:42:15;2.67;;;2.47;;
13795;SDS011;40911;51.552;9.874;2022-09-29T15:44:38;3.40;;;2.88;;
13795;SDS011;40911;51.552;9.874;2022-09-29T15:47:07;3.53;;;3.17;;
13795;SDS011;40911;51.552;9.874;2022-09-29T15:49:46;3.47;;;3.00;;
13795;SDS011;40911;51.552;9.874;2022-09-29T15:52:11;3.20;;;2.90;;
13795;SDS011;40911;51.552;9.874;2022-09-29T15:54:37;3.30;;;3.03;;
13795;SDS011;40911;51.552;9.874;2022-09-29T15:57:04;3.78;;;3.17;;
13795;SDS011;40911;51.552;9.874;2022-09-29T15:59:45;4.15;;;3.80;;
13795;SDS011;40911;51.552;9.874;2022-09-29T16:02:21;6.63;;;3.92;;
13795;SDS011;40911;51.552;9.874;2022-09-29T16:04:53;5.75;;;3.78;;
13795;SDS011;40911;51.552;9.874;2022-09-29T16:07:17;4.70;;;3.40;;
13795;SDS011;40911;51.552;9.874;2022-09-29T16:09:42;3.47;;;3.03;;
13795;SDS011;40911;51.552;9.874;2022-09-29T16:12:05;3.30;;;3.00;;
13795;SDS011;40911;51.552;9.874;2022-09-29T16:14:27;3.40;;;2.65;;
13795;SDS011;40911;51.552;9.874;2022-09-29T16:16:51;3.55;;;2.60;;
13795;SDS011;40911;51.552;9.874;2022-09-29T16:19:14;2.67;;;2.45;;
13795;SDS011;40911;51.552;9.874;2022-09-29T16:21:40;3.75;;;2.97;;
13795;SDS011;40911;51.552;9.874;2022-09-29T16:24:12;2.90;;;2.70;;
13795;SDS011;40911;51.552;9.874;2022-09-29T16:26:39;4.32;;;3.25;;
13795;SDS011;40911;51.552;9.874;2022-09-29T16:29:04;3.63;;;3.33;;
13795;SDS011;40911;51.552;9.874;2022-09-29T16:31:43;3.25;;;2.95;;
13795;SDS011;40911;51.552;9.874;2022-09-29T16:34:19;3.40;;;3.10;;
13795;SDS011;40911;51.552;9.874;2022-09-29T16:36:45;4.97;;;2.88;;
13795;SDS011;40911;51.552;9.874;2022-09-29T16:39:09;3.00;;;2.78;;
13795;SDS011;40911;51.552;9.874;2022-09-29T16:41:36;3.28;;;2.97;;
13795;SDS011;40911;51.552;9.874;2022-09-29T16:44:03;5.47;;;3.25;;
13795;SDS011;40911;51.552;9.874;2022-09-29T16:46:31;5.78;;;3.45;;
13795;SDS011;40911;51.552;9.874;2022-09-29T16:48:56;3.78;;;3.40;;
13795;SDS011;40911;51.552;9.874;2022-09-29T16:51:20;3.42;;;3.13;;
13795;SDS011;40911;51.552;9.874;2022-09-29T16:53:43;3.63;;;3.33;;
13795;SDS011;40911;51.552;9.874;2022-09-29T16:56:07;5.30;;;4.53;;
13795;SDS011;40911;51.552;9.874;2022-09-29T16:58:37;8.63;;;4.57;;
13795;SDS011;40911;51.552;9.874;2022-09-29T17:01:01;7.40;;;4.82;;
13795;SDS011;40911;51.552;9.874;2022-09-29T17:03:46;11.13;;;6.30;;
13795;SDS011;40911;51.552;9.874;2022-09-29T17:06:08;11.93;;;6.88;;
13795;SDS011;40911;51.552;9.874;2022-09-29T17:08:32;11.02;;;6.85;;
13795;SDS011;40911;51.552;9.874;2022-09-29T17:10:55;14.02;;;7.88;;